createdAt,value
2019-05-29T16:44:46.194Z,101692.00
2019-05-29T16:47:16.616Z,101695.00
2019-05-29T16:49:47.002Z,101698.00
2019-05-29T16:52:17.375Z,101695.00
2019-05-29T16:54:48.071Z,101695.00
2019-05-29T16:57:19.396Z,101704.00
2019-05-29T16:59:50.782Z,101700.00
2019-05-29T17:02:21.722Z,101697.00
2019-05-29T17:04:53.289Z,101704.00
2019-05-29T17:07:24.261Z,101708.00
2019-05-29T17:09:55.811Z,101710.00
2019-05-29T17:12:26.172Z,101709.00
2019-05-29T17:14:56.554Z,101705.00
2019-05-29T17:17:30.341Z,101706.00
2019-05-29T17:19:59.177Z,101706.00
2019-05-29T17:22:29.550Z,101707.00
2019-05-29T17:25:00.026Z,101709.00
2019-05-29T17:27:30.380Z,101710.00
2019-05-29T17:30:00.769Z,101718.00
2019-05-29T17:32:31.145Z,101720.00
2019-05-29T17:35:01.536Z,101719.00
2019-05-29T17:37:32.086Z,101721.00
2019-05-29T17:40:02.457Z,101719.00
2019-05-29T17:42:36.031Z,101727.00
2019-05-29T17:45:11.337Z,101727.00
2019-05-29T17:47:45.160Z,101733.00
2019-05-29T17:50:19.095Z,101732.00
2019-05-29T17:52:47.940Z,101738.00
2019-05-29T17:55:37.640Z,101730.00
2019-05-29T17:58:08.034Z,101735.00
2019-05-29T18:00:38.467Z,101744.00
2019-05-29T18:03:09.036Z,101740.00
2019-05-29T18:05:39.413Z,101741.00
2019-05-29T18:08:22.890Z,101752.00
2019-05-29T18:10:54.284Z,101754.00
2019-05-29T18:13:25.319Z,101747.00
2019-05-29T18:15:57.767Z,101757.00
2019-05-29T18:18:28.571Z,101757.00
2019-05-29T18:20:59.862Z,101759.00
2019-05-29T18:23:31.920Z,101753.00
2019-05-29T18:26:02.290Z,101757.00
2019-05-29T18:28:32.673Z,101763.00
2019-05-29T18:31:03.047Z,101767.00
2019-05-29T18:33:33.433Z,101766.00
2019-05-29T18:36:03.867Z,101766.00
2019-05-29T18:38:34.255Z,101765.00
2019-05-29T18:41:04.803Z,101773.00
2019-05-29T18:43:35.179Z,101777.00
2019-05-29T18:46:05.678Z,101783.00
2019-05-29T18:48:36.069Z,101772.00
2019-05-29T18:51:06.425Z,101779.00
2019-05-29T18:53:36.824Z,101782.00
2019-05-29T18:56:07.177Z,101779.00
2019-05-29T18:58:39.012Z,101785.00
2019-05-29T19:01:09.383Z,101776.00
2019-05-29T19:03:40.639Z,101786.00
2019-05-29T19:06:12.196Z,101787.00
2019-05-29T19:08:43.085Z,101793.00
2019-05-29T19:11:13.631Z,101798.00
2019-05-29T19:13:44.104Z,101799.00
2019-05-29T19:16:14.497Z,101793.00
2019-05-29T19:18:45.113Z,101797.00
2019-05-29T19:21:15.470Z,101793.00
2019-05-29T19:23:45.897Z,101793.00
2019-05-29T19:26:16.264Z,101796.00
2019-05-29T19:28:48.212Z,101803.00
2019-05-29T19:31:19.810Z,101812.00
2019-05-29T19:33:50.191Z,101810.00
2019-05-29T19:36:20.551Z,101812.00
2019-05-29T19:38:50.983Z,101822.00
2019-05-29T19:41:22.331Z,101820.00
2019-05-29T19:43:52.712Z,101825.00
2019-05-29T19:46:24.406Z,101823.00
2019-05-29T19:48:54.849Z,101828.00
2019-05-29T19:51:25.317Z,101828.00
2019-05-29T19:53:58.953Z,101842.00
2019-05-29T19:56:29.658Z,101844.00
2019-05-29T19:59:00.065Z,101841.00
2019-05-29T20:01:36.126Z,101844.00
2019-05-29T20:04:02.514Z,101843.00
2019-05-29T20:06:33.188Z,101847.00
2019-05-29T20:09:04.579Z,101857.00
2019-05-29T20:11:35.914Z,101855.00
2019-05-29T20:14:07.675Z,101851.00
2019-05-29T20:16:39.165Z,101858.00
2019-05-29T20:19:09.932Z,101858.00
2019-05-29T20:21:40.268Z,101859.00
2019-05-29T20:24:10.785Z,101861.00
2019-05-29T20:26:41.421Z,101870.00
2019-05-29T20:29:15.689Z,101859.00
2019-05-29T20:31:46.043Z,101872.00
2019-05-29T20:34:16.634Z,101869.00
2019-05-29T20:36:46.972Z,101878.00
2019-05-29T20:39:17.422Z,101878.00
2019-05-29T20:41:47.866Z,101878.00
2019-05-29T20:44:18.287Z,101889.00
2019-05-29T20:46:48.640Z,101875.00
2019-05-29T20:49:22.568Z,101891.00
2019-05-29T20:51:53.000Z,101879.00
2019-05-29T20:54:23.695Z,101875.00
2019-05-29T20:56:54.133Z,101879.00
2019-05-29T20:59:24.527Z,101875.00
2019-05-29T21:01:54.880Z,101888.00
2019-05-29T21:04:25.275Z,101889.00
2019-05-29T21:06:55.615Z,101892.00
2019-05-29T21:09:26.015Z,101884.00
2019-05-29T21:11:56.399Z,101892.00
2019-05-29T21:14:26.780Z,101882.00
2019-05-29T21:16:57.135Z,101892.00
2019-05-29T21:19:27.529Z,101892.00
2019-05-29T21:21:57.885Z,101885.00
2019-05-29T21:24:28.651Z,101901.00
2019-05-29T21:26:59.001Z,101898.00
2019-05-29T21:29:29.654Z,101894.00
2019-05-29T21:32:00.336Z,101897.00
2019-05-29T21:34:31.685Z,101893.00
2019-05-29T21:37:02.031Z,101898.00
2019-05-29T21:39:32.555Z,101901.00
2019-05-29T21:42:02.993Z,101909.00
2019-05-29T21:44:45.365Z,101906.00
2019-05-29T21:47:15.713Z,101896.00
2019-05-29T21:49:47.436Z,101898.00
2019-05-29T21:52:17.883Z,101899.00
2019-05-29T21:54:48.266Z,101896.00
2019-05-29T21:57:18.630Z,101899.00
2019-05-29T21:59:49.165Z,101901.00
2019-05-29T22:02:19.530Z,101899.00
2019-05-29T22:04:50.030Z,101909.00
2019-05-29T22:07:20.372Z,101913.00
2019-05-29T22:09:50.756Z,101915.00
2019-05-29T22:12:21.100Z,101912.00
2019-05-29T22:14:52.022Z,101917.00
2019-05-29T22:17:23.638Z,101921.00
2019-05-29T22:19:54.943Z,101915.00
2019-05-29T22:22:25.359Z,101917.00
2019-05-29T22:24:55.746Z,101916.00
2019-05-29T22:27:27.264Z,101919.00
2019-05-29T22:29:57.640Z,101922.00
2019-05-29T22:32:27.995Z,101919.00
2019-05-29T22:34:59.501Z,101922.00
2019-05-29T22:37:29.916Z,101919.00
2019-05-29T22:40:00.280Z,101924.00
2019-05-29T22:42:30.638Z,101918.00
2019-05-29T22:45:02.243Z,101924.00
2019-05-29T22:47:33.616Z,101929.00
2019-05-29T22:50:06.335Z,101924.00
2019-05-29T22:52:36.757Z,101924.00
2019-05-29T22:55:08.844Z,101921.00
2019-05-29T22:57:39.202Z,101919.00
2019-05-29T23:00:11.483Z,101924.00
2019-05-29T23:02:41.839Z,101923.00
2019-05-29T23:05:12.283Z,101933.00
2019-05-29T23:07:42.643Z,101923.00
2019-05-29T23:10:13.435Z,101921.00
2019-05-29T23:12:43.798Z,101920.00
2019-05-29T23:15:14.977Z,101917.00
2019-05-29T23:17:45.341Z,101917.00
2019-05-29T23:20:15.843Z,101920.00
2019-05-29T23:22:46.190Z,101923.00
2019-05-29T23:25:16.564Z,101918.00
2019-05-29T23:27:47.894Z,101922.00
2019-05-29T23:30:18.576Z,101922.00
2019-05-29T23:32:48.933Z,101914.00
2019-05-29T23:35:19.575Z,101914.00
2019-05-29T23:37:49.930Z,101914.00
2019-05-29T23:40:20.978Z,101912.00
2019-05-29T23:42:51.333Z,101911.00
2019-05-29T23:45:21.705Z,101910.00
2019-05-29T23:47:53.308Z,101912.00
2019-05-29T23:50:23.814Z,101914.00
2019-05-29T23:52:54.185Z,101903.00
2019-05-29T23:55:24.536Z,101907.00
2019-05-29T23:57:55.687Z,101906.00
